Time;durP1;ratioP1;P1;durP2;ratioP2;P2;SDS_P1;SDS_P2;PMS_P1;PMS_P2;Temp;Humidity;BMP_temperature;BMP_pressure;BME280_temperature;BME280_humidity;BME280_pressure;Samples;Min_cycle;Max_cycle;Signal;HPM_P1;HPM_P2
2022/10/15 00:01:26;;;;;;;2.85;1.60;;;19.10;62.80;;;;;;5085849;28;45431;-73
2022/10/15 00:03:52;;;;;;;2.17;1.55;;;19.10;62.80;;;;;;5085373;28;46424;-74
2022/10/15 00:06:20;;;;;;;2.63;1.50;;;19.10;62.90;;;;;;5085495;28;45287;-73
2022/10/15 00:08:47;;;;;;;3.35;1.58;;;19.10;62.90;;;;;;5085483;28;45214;-73
2022/10/15 00:11:14;;;;;;;2.08;1.45;;;19.10;62.80;;;;;;5085630;28;45224;-73
2022/10/15 00:13:41;;;;;;;1.70;1.58;;;19.10;62.70;;;;;;5085322;28;47530;-74
2022/10/15 00:16:12;;;;;;;2.75;1.65;;;19.10;62.90;;;;;;5085378;28;45396;-73
2022/10/15 00:18:39;;;;;;;2.60;1.55;;;19.10;62.80;;;;;;5085558;28;45166;-73
2022/10/15 00:21:07;;;;;;;2.00;1.60;;;19.10;62.80;;;;;;5082876;28;45273;-74
2022/10/15 00:23:34;;;;;;;2.40;1.73;;;19.10;62.80;;;;;;5085221;28;45506;-73
2022/10/15 00:26:02;;;;;;;2.35;1.70;;;19.10;62.90;;;;;;5085190;28;45415;-73
2022/10/15 00:28:29;;;;;;;2.00;1.70;;;19.10;62.90;;;;;;5085454;28;45293;-74
2022/10/15 00:31:00;;;;;;;2.70;1.70;;;19.10;62.80;;;;;;5085900;28;45480;-73
2022/10/15 00:33:29;;;;;;;3.10;1.80;;;19.10;62.90;;;;;;5085018;28;46346;-73
2022/10/15 00:36:00;;;;;;;1.83;1.73;;;19.10;63.00;;;;;;5082509;28;45292;-73
2022/10/15 00:38:27;;;;;;;2.55;1.90;;;19.10;62.90;;;;;;5085244;28;45191;-73
2022/10/15 00:40:54;;;;;;;2.00;1.80;;;19.10;62.80;;;;;;5083460;27;45205;-73
2022/10/15 00:43:36;;;;;;;3.92;2.00;;;19.10;62.90;;;;;;5088102;28;46475;-73
2022/10/15 00:46:03;;;;;;;2.42;1.80;;;19.10;62.90;;;;;;5088892;28;45188;-73
2022/10/15 00:48:32;;;;;;;3.22;2.30;;;19.10;62.90;;;;;;5089006;28;45292;-73
2022/10/15 00:50:59;;;;;;;2.90;2.20;;;19.10;63.00;;;;;;5088746;28;45411;-73
2022/10/15 00:53:26;;;;;;;2.88;1.92;;;19.10;62.90;;;;;;5088297;28;45401;-73
2022/10/15 00:55:53;;;;;;;3.40;2.30;;;19.10;62.90;;;;;;5088362;28;45254;-73
2022/10/15 00:58:26;;;;;;;2.25;1.83;;;19.10;62.80;;;;;;5088430;28;45301;-73
2022/10/15 01:00:53;;;;;;;4.28;2.20;;;19.10;62.80;;;;;;5088566;28;45127;-73
2022/10/15 01:03:20;;;;;;;2.15;1.95;;;19.10;62.90;;;;;;5088073;28;46582;-73
2022/10/15 01:05:49;;;;;;;3.90;2.10;;;19.10;63.00;;;;;;5088204;28;45312;-73
2022/10/15 01:08:16;;;;;;;4.10;2.40;;;19.10;63.00;;;;;;5088267;28;45296;-73
2022/10/15 01:10:51;;;;;;;3.92;2.30;;;19.10;63.00;;;;;;5088368;28;45294;-73
2022/10/15 01:13:22;;;;;;;3.65;2.15;;;19.10;63.90;;;;;;5087625;28;46659;-73
2022/10/15 01:15:51;;;;;;;3.45;2.22;;;19.10;63.10;;;;;;5087960;28;45641;-73
2022/10/15 01:18:19;;;;;;;3.17;2.30;;;19.10;63.10;;;;;;5088113;28;45193;-73
2022/10/15 01:20:58;;;;;;;5.35;2.70;;;19.10;63.10;;;;;;5088204;28;45184;-73
2022/10/15 01:23:47;;;;;;;2.90;2.30;;;19.10;63.20;;;;;;5087821;28;45318;-73
2022/10/15 01:26:26;;;;;;;3.40;2.22;;;19.10;63.10;;;;;;5087915;28;45273;-73
2022/10/15 01:28:57;;;;;;;2.55;2.17;;;19.10;63.00;;;;;;5088001;28;45315;-73
2022/10/15 01:31:28;;;;;;;2.55;2.10;;;19.10;63.10;;;;;;5088076;28;45625;-73
2022/10/15 01:33:57;;;;;;;2.97;2.30;;;19.10;63.10;;;;;;5085032;28;46140;-73
2022/10/15 01:36:27;;;;;;;2.97;2.28;;;19.10;63.10;;;;;;5087662;28;45215;-74
2022/10/15 01:38:56;;;;;;;3.03;2.40;;;19.10;63.90;;;;;;5087974;28;45294;-73
2022/10/15 01:41:27;;;;;;;3.05;2.40;;;19.10;63.10;;;;;;5088214;28;45247;-73
2022/10/15 01:43:58;;;;;;;3.08;2.28;;;19.10;63.20;;;;;;5087100;28;46399;-73
2022/10/15 01:46:27;;;;;;;4.57;2.22;;;19.10;63.10;;;;;;5087634;28;45220;-73
2022/10/15 01:48:54;;;;;;;2.97;2.42;;;19.10;63.10;;;;;;5087666;28;45318;-73
2022/10/15 01:51:21;;;;;;;3.25;2.00;;;19.10;63.10;;;;;;5087906;28;45333;-73
2022/10/15 01:53:48;;;;;;;5.05;2.42;;;19.10;63.10;;;;;;5085866;27;45457;-73
2022/10/15 01:56:18;;;;;;;3.53;2.38;;;19.10;63.10;;;;;;5087428;28;45179;-73
2022/10/15 01:58:45;;;;;;;3.55;2.47;;;19.10;63.10;;;;;;5087500;28;45365;-73
2022/10/15 02:01:12;;;;;;;3.30;2.30;;;19.10;63.10;;;;;;5087956;28;45202;-73
2022/10/15 02:03:47;;;;;;;3.17;2.45;;;19.10;63.10;;;;;;5087454;28;45542;-73
2022/10/15 02:06:17;;;;;;;3.60;2.20;;;19.10;63.20;;;;;;5084660;28;45227;-73
2022/10/15 02:08:45;;;;;;;2.80;2.28;;;19.10;63.20;;;;;;5087287;28;45333;-74
2022/10/15 02:11:13;;;;;;;4.18;2.60;;;19.10;63.00;;;;;;5087482;28;45201;-73
2022/10/15 02:13:44;;;;;;;4.88;2.30;;;19.10;63.10;;;;;;5087087;28;47364;-73
2022/10/15 02:16:12;;;;;;;2.63;1.90;;;19.10;63.10;;;;;;5087058;28;45287;-73
2022/10/15 02:18:41;;;;;;;3.47;2.40;;;19.10;63.20;;;;;;5087010;28;45242;-73
2022/10/15 02:21:12;;;;;;;3.25;2.13;;;19.10;63.20;;;;;;5087127;28;45316;-73
2022/10/15 02:23:43;;;;;;;2.80;2.22;;;19.10;63.10;;;;;;5086854;28;45269;-73
2022/10/15 02:26:10;;;;;;;2.55;2.05;;;19.10;63.10;;;;;;5086951;28;45265;-73
2022/10/15 02:28:37;;;;;;;2.13;1.80;;;19.10;63.20;;;;;;5087152;28;45312;-72
2022/10/15 02:31:05;;;;;;;2.50;1.88;;;19.10;63.10;;;;;;5087284;28;45206;-73
2022/10/15 02:33:32;;;;;;;2.53;2.00;;;19.10;63.10;;;;;;5086618;28;45540;-73
2022/10/15 02:35:58;;;;;;;2.88;2.00;;;19.10;63.20;;;;;;5086650;28;45320;-73
2022/10/15 02:38:27;;;;;;;3.25;2.08;;;19.10;63.20;;;;;;5086886;28;45306;-73
2022/10/15 02:40:54;;;;;;;3.08;2.60;;;19.10;63.10;;;;;;5086978;28;45289;-73
2022/10/15 02:43:21;;;;;;;2.80;2.30;;;19.10;63.20;;;;;;5086266;28;46371;-73
2022/10/15 02:45:48;;;;;;;2.38;2.17;;;19.10;63.20;;;;;;5086513;28;45296;-73
2022/10/15 02:48:15;;;;;;;2.42;1.90;;;19.10;63.10;;;;;;5086798;28;45405;-73
2022/10/15 02:50:42;;;;;;;2.80;2.05;;;19.10;63.10;;;;;;5086912;28;45409;-73
2022/10/15 02:53:09;;;;;;;2.45;2.00;;;19.10;63.00;;;;;;5086404;28;45487;-73
2022/10/15 02:55:37;;;;;;;2.40;1.90;;;19.10;63.10;;;;;;5086312;28;45274;-72
2022/10/15 02:58:04;;;;;;;3.15;1.90;;;19.10;63.00;;;;;;5083877;28;45355;-72
2022/10/15 03:00:31;;;;;;;3.20;1.65;;;19.10;63.10;;;;;;5086493;28;45495;-72
2022/10/15 03:02:58;;;;;;;2.63;1.88;;;19.10;63.10;;;;;;5086211;28;45538;-72
2022/10/15 03:05:25;;;;;;;2.75;1.77;;;19.10;63.10;;;;;;5085786;28;45170;-73
2022/10/15 03:07:52;;;;;;;2.72;1.98;;;19.10;63.00;;;;;;5086399;28;45287;-73
2022/10/15 03:10:19;;;;;;;3.00;1.90;;;19.10;63.10;;;;;;5086365;28;45565;-73
2022/10/15 03:12:47;;;;;;;1.80;1.60;;;19.10;63.00;;;;;;5086110;28;45361;-73
2022/10/15 03:15:14;;;;;;;1.67;1.50;;;19.10;63.70;;;;;;5086228;28;45238;-73
2022/10/15 03:17:41;;;;;;;2.58;1.67;;;19.10;63.10;;;;;;5083632;28;45194;-73
2022/10/15 03:20:08;;;;;;;2.10;1.58;;;19.10;63.10;;;;;;5086365;28;45400;-73
2022/10/15 03:22:36;;;;;;;1.67;1.58;;;19.10;63.10;;;;;;5085939;28;45620;-73
2022/10/15 03:25:03;;;;;;;2.13;1.73;;;19.10;63.00;;;;;;5086028;28;45276;-73
2022/10/15 03:27:29;;;;;;;1.80;1.42;;;19.10;62.90;;;;;;5086187;28;45254;-73
2022/10/15 03:29:58;;;;;;;2.08;1.88;;;19.10;63.10;;;;;;5086287;28;45184;-73
2022/10/15 03:32:25;;;;;;;2.20;1.60;;;19.00;62.90;;;;;;5085812;28;46802;-72
2022/10/15 03:34:52;;;;;;;2.25;1.70;;;19.10;63.10;;;;;;5085747;28;45304;-73
2022/10/15 03:37:19;;;;;;;2.00;1.55;;;19.10;63.00;;;;;;5085963;28;45230;-73
2022/10/15 03:39:45;;;;;;;2.33;1.75;;;19.10;63.10;;;;;;5086107;28;45450;-73
2022/10/15 03:42:13;;;;;;;1.98;1.63;;;19.10;63.10;;;;;;5085467;28;46660;-73
2022/10/15 03:44:39;;;;;;;2.30;1.70;;;19.10;63.10;;;;;;5085751;28;45370;-72
2022/10/15 03:47:08;;;;;;;2.70;1.55;;;19.10;63.00;;;;;;5085904;28;45387;-72
2022/10/15 03:49:34;;;;;;;1.80;1.30;;;19.10;63.10;;;;;;5086300;28;45185;-73
2022/10/15 03:52:01;;;;;;;1.80;1.40;;;19.10;63.00;;;;;;5085619;28;45279;-73
2022/10/15 03:54:28;;;;;;;2.80;1.70;;;19.10;62.90;;;;;;5085534;28;45493;-73
2022/10/15 03:56:55;;;;;;;1.80;1.60;;;19.10;62.80;;;;;;5085762;28;45238;-73
2022/10/15 03:59:22;;;;;;;1.83;1.40;;;19.10;62.90;;;;;;5086072;28;45432;-73
2022/10/15 04:01:49;;;;;;;1.67;1.48;;;19.10;62.80;;;;;;5085363;28;45345;-72
2022/10/15 04:04:17;;;;;;;1.75;1.50;;;19.10;62.80;;;;;;5085742;28;45305;-73
2022/10/15 04:06:46;;;;;;;2.45;1.60;;;19.10;62.90;;;;;;5085562;28;45323;-73
2022/10/15 04:09:13;;;;;;;2.10;1.50;;;19.10;62.90;;;;;;5085683;28;45304;-73
2022/10/15 04:11:40;;;;;;;1.65;1.55;;;19.10;62.90;;;;;;5085286;28;45381;-74
2022/10/15 04:14:07;;;;;;;1.52;1.40;;;19.10;62.90;;;;;;5085527;28;45283;-73
2022/10/15 04:16:34;;;;;;;1.98;1.60;;;19.10;62.80;;;;;;5087263;27;45303;-73
2022/10/15 04:19:01;;;;;;;1.88;1.42;;;19.10;62.80;;;;;;5089435;28;45273;-72
2022/10/15 04:21:29;;;;;;;1.20;1.10;;;19.10;62.90;;;;;;5088742;28;45401;-73
2022/10/15 04:23:56;;;;;;;2.60;1.30;;;19.10;62.90;;;;;;5089195;28;45324;-73
2022/10/15 04:26:23;;;;;;;1.75;1.50;;;19.10;62.90;;;;;;5089025;28;45271;-73
2022/10/15 04:28:50;;;;;;;2.65;1.48;;;19.00;62.80;;;;;;5089214;28;45371;-73
2022/10/15 04:31:17;;;;;;;1.65;1.45;;;19.10;62.80;;;;;;5088713;28;46658;-73
2022/10/15 04:33:44;;;;;;;1.48;1.30;;;19.10;62.90;;;;;;5088982;28;45221;-73
2022/10/15 04:36:12;;;;;;;1.33;1.20;;;19.10;62.90;;;;;;5086093;28;45205;-73
2022/10/15 04:38:41;;;;;;;1.40;1.30;;;19.10;63.00;;;;;;5088979;28;45397;-73
2022/10/15 04:41:08;;;;;;;1.40;1.13;;;19.00;62.90;;;;;;5088525;28;46725;-73
2022/10/15 04:43:35;;;;;;;1.50;1.25;;;19.00;62.90;;;;;;5087741;28;45161;-73
2022/10/15 04:46:04;;;;;;;1.67;1.40;;;19.00;62.90;;;;;;5088618;28;45204;-73
2022/10/15 04:48:32;;;;;;;1.50;1.40;;;19.10;62.90;;;;;;5086786;28;45296;-72
2022/10/15 04:51:03;;;;;;;1.42;1.33;;;19.10;63.00;;;;;;5089024;28;45446;-73
2022/10/15 04:53:30;;;;;;;1.15;1.05;;;19.00;62.90;;;;;;5089008;28;45264;-73
2022/10/15 04:56:02;;;;;;;1.25;1.15;;;19.00;63.00;;;;;;5089266;28;45291;-73
2022/10/15 04:58:30;;;;;;;1.23;1.10;;;19.00;63.00;;;;;;5089201;28;45227;-73
2022/10/15 05:01:00;;;;;;;1.30;1.20;;;19.00;63.00;;;;;;5089031;28;45352;-73
2022/10/15 05:03:26;;;;;;;1.15;1.05;;;19.00;63.00;;;;;;5089017;28;45265;-73
2022/10/15 05:05:53;;;;;;;1.20;1.10;;;19.00;63.00;;;;;;5089076;28;45190;-73
2022/10/15 05:08:21;;;;;;;1.40;1.23;;;19.00;63.00;;;;;;5089388;28;45318;-73
2022/10/15 05:10:47;;;;;;;1.42;1.02;;;19.00;63.00;;;;;;5068297;28;46660;-73
2022/10/15 05:13:16;;;;;;;0.98;0.93;;;19.00;62.90;;;;;;5068644;28;45183;-73
2022/10/15 05:15:43;;;;;;;1.40;1.20;;;19.00;63.10;;;;;;5068463;28;45281;-73
2022/10/15 05:18:09;;;;;;;1.55;1.00;;;19.00;63.00;;;;;;5068548;28;45432;-73
2022/10/15 05:20:36;;;;;;;1.30;1.20;;;19.00;63.00;;;;;;5068210;28;46384;-73
2022/10/15 05:23:05;;;;;;;1.35;0.90;;;19.00;62.90;;;;;;5067934;28;45297;-73
2022/10/15 05:25:32;;;;;;;1.30;1.08;;;19.00;62.90;;;;;;5068089;28;45209;-73
2022/10/15 05:27:58;;;;;;;0.93;0.90;;;19.00;62.90;;;;;;5065693;28;45166;-73
2022/10/15 05:30:27;;;;;;;1.15;1.00;;;19.00;62.90;;;;;;5067973;28;45554;-73
2022/10/15 05:32:54;;;;;;;1.08;1.02;;;19.00;63.00;;;;;;5068033;28;45321;-73
2022/10/15 05:35:21;;;;;;;1.05;0.90;;;19.00;63.00;;;;;;5068626;28;45222;-73
2022/10/15 05:37:48;;;;;;;0.82;0.82;;;19.00;63.00;;;;;;5088695;28;45182;-73
2022/10/15 05:40:15;;;;;;;1.30;0.85;;;19.00;63.00;;;;;;5088426;28;45419;-73
2022/10/15 05:42:42;;;;;;;1.15;0.90;;;19.00;63.00;;;;;;5086111;28;45360;-74
2022/10/15 05:45:10;;;;;;;0.90;0.90;;;19.00;63.10;;;;;;5085687;28;45281;-73
2022/10/15 05:47:38;;;;;;;0.90;0.90;;;19.00;63.10;;;;;;5088567;28;45447;-73
2022/10/15 05:50:06;;;;;;;1.02;0.93;;;19.00;63.10;;;;;;5085359;28;45438;-73
2022/10/15 05:52:33;;;;;;;0.82;0.82;;;19.00;63.10;;;;;;5088209;28;45240;-73
2022/10/15 05:55:00;;;;;;;2.10;1.05;;;19.00;63.10;;;;;;5088229;28;45212;-73
2022/10/15 05:57:27;;;;;;;2.00;0.90;;;19.00;63.10;;;;;;5085916;28;45484;-73
2022/10/15 05:59:54;;;;;;;1.10;1.00;;;19.00;63.00;;;;;;5087959;28;45218;-73
2022/10/15 06:02:20;;;;;;;2.28;0.95;;;19.00;63.00;;;;;;5088275;28;45344;-73
2022/10/15 06:04:50;;;;;;;0.90;0.90;;;19.00;63.00;;;;;;5088052;28;45367;-73
2022/10/15 06:07:17;;;;;;;0.90;0.80;;;19.00;63.00;;;;;;5088000;28;45486;-72
2022/10/15 06:09:44;;;;;;;1.00;0.90;;;19.00;63.00;;;;;;5087396;28;45267;-73
2022/10/15 06:12:11;;;;;;;0.80;0.80;;;19.00;62.90;;;;;;5087689;28;45265;-73
2022/10/15 06:14:37;;;;;;;1.17;1.05;;;19.00;63.00;;;;;;5088127;28;45303;-73
2022/10/15 06:17:04;;;;;;;1.30;1.20;;;19.00;62.90;;;;;;5088008;28;45208;-73
2022/10/15 06:19:31;;;;;;;0.75;0.75;;;19.00;63.00;;;;;;5087750;28;45205;-73
2022/10/15 06:21:59;;;;;;;1.00;0.70;;;19.00;63.00;;;;;;5087636;28;45308;-73
2022/10/15 06:24:26;;;;;;;0.98;0.70;;;19.00;63.10;;;;;;5087786;28;45392;-73
2022/10/15 06:26:53;;;;;;;1.00;0.90;;;19.00;63.00;;;;;;5087938;28;45460;-73
2022/10/15 06:29:20;;;;;;;0.80;0.80;;;19.00;63.00;;;;;;5087327;28;46476;-73
2022/10/15 06:31:47;;;;;;;2.17;0.93;;;19.00;63.00;;;;;;5087515;28;45627;-73
2022/10/15 06:34:14;;;;;;;0.90;0.90;;;19.00;63.00;;;;;;5085190;28;45218;-73
2022/10/15 06:36:40;;;;;;;1.08;0.80;;;19.00;63.00;;;;;;5087451;28;45574;-73
2022/10/15 06:39:09;;;;;;;1.10;0.70;;;19.00;63.00;;;;;;5086533;28;46646;-73
2022/10/15 06:41:36;;;;;;;3.13;0.60;;;19.00;63.00;;;;;;5087266;28;45242;-73
2022/10/15 06:44:03;;;;;;;0.65;0.65;;;19.00;62.90;;;;;;5087151;28;45273;-73
2022/10/15 06:46:30;;;;;;;0.88;0.73;;;19.00;62.90;;;;;;5087567;28;45298;-73
2022/10/15 06:48:57;;;;;;;0.77;0.60;;;19.00;63.60;;;;;;5087125;28;46695;-73
2022/10/15 06:51:24;;;;;;;0.77;0.77;;;19.00;62.90;;;;;;5086529;28;45392;-72
2022/10/15 06:53:51;;;;;;;0.60;0.60;;;19.00;62.90;;;;;;5084452;28;45172;-73
2022/10/15 06:56:19;;;;;;;0.73;0.57;;;19.00;63.70;;;;;;5087284;28;45150;-73
2022/10/15 06:58:46;;;;;;;0.70;0.70;;;19.00;62.90;;;;;;5086968;28;46409;-73
2022/10/15 07:01:12;;;;;;;0.77;0.70;;;19.00;63.00;;;;;;5087225;28;45412;-73
2022/10/15 07:03:40;;;;;;;1.15;0.70;;;19.00;62.90;;;;;;5087475;28;45213;-73
2022/10/15 07:06:07;;;;;;;0.68;0.60;;;19.00;63.00;;;;;;5087508;28;45155;-73
2022/10/15 07:08:34;;;;;;;0.70;0.70;;;19.00;63.00;;;;;;5087027;28;46915;-73
2022/10/15 07:11:02;;;;;;;0.55;0.55;;;19.00;63.00;;;;;;5087073;28;45394;-73
2022/10/15 07:13:30;;;;;;;0.60;0.60;;;19.00;63.80;;;;;;5087192;28;45305;-73
2022/10/15 07:15:57;;;;;;;0.60;0.60;;;19.00;63.00;;;;;;5087352;28;45443;-73
2022/10/15 07:18:24;;;;;;;0.50;0.50;;;19.00;63.00;;;;;;5087120;28;45542;-73
2022/10/15 07:20:51;;;;;;;0.60;0.60;;;19.00;63.10;;;;;;5086943;28;45413;-73
2022/10/15 07:23:18;;;;;;;1.10;0.80;;;19.10;63.00;;;;;;5087243;28;45418;-73
2022/10/15 07:25:45;;;;;;;0.52;0.52;;;19.10;63.10;;;;;;5087342;28;45446;-73
2022/10/15 07:28:12;;;;;;;0.57;0.57;;;19.10;63.00;;;;;;5086652;28;46739;-73
2022/10/15 07:30:40;;;;;;;0.80;0.70;;;19.10;63.00;;;;;;5086651;28;45302;-73
2022/10/15 07:33:07;;;;;;;0.60;0.60;;;19.10;62.90;;;;;;5086929;28;45333;-73
2022/10/15 07:35:34;;;;;;;0.60;0.60;;;19.10;63.00;;;;;;5086229;28;45348;-73
2022/10/15 07:38:01;;;;;;;0.50;0.50;;;19.10;62.90;;;;;;5086210;28;45713;-73
2022/10/15 07:40:28;;;;;;;0.63;0.57;;;19.10;63.00;;;;;;5086745;28;45233;-73
2022/10/15 07:42:55;;;;;;;0.32;0.30;;;19.10;63.10;;;;;;5086311;28;45475;-73
2022/10/15 07:45:22;;;;;;;1.15;0.88;;;19.10;63.00;;;;;;5086814;28;45206;-73
2022/10/15 07:47:50;;;;;;;1.35;0.70;;;19.10;63.60;;;;;;5086438;28;45468;-73
2022/10/15 07:50:17;;;;;;;0.90;0.80;;;19.10;63.30;;;;;;5087755;28;45206;-73
2022/10/15 07:52:44;;;;;;;0.30;0.30;;;19.10;63.20;;;;;;5090130;28;45162;-73
2022/10/15 07:55:11;;;;;;;0.50;0.50;;;19.10;63.20;;;;;;5087767;28;45332;-73
2022/10/15 07:57:38;;;;;;;0.60;0.60;;;19.20;63.20;;;;;;5089823;28;46477;-73
2022/10/15 08:00:06;;;;;;;0.60;0.60;;;19.20;63.20;;;;;;5087307;28;45320;-73
2022/10/15 08:02:32;;;;;;;0.50;0.50;;;19.20;63.20;;;;;;5090236;28;45202;-73
2022/10/15 08:05:01;;;;;;;0.63;0.63;;;19.20;63.30;;;;;;5089917;28;45253;-73
2022/10/15 08:07:28;;;;;;;0.40;0.40;;;19.20;63.40;;;;;;5089753;28;47855;-73
2022/10/15 08:09:54;;;;;;;1.17;0.40;;;19.20;63.40;;;;;;5089438;28;45381;-73
2022/10/15 08:12:21;;;;;;;0.50;0.50;;;19.20;63.60;;;;;;5090111;28;45217;-73
2022/10/15 08:14:48;;;;;;;0.50;0.50;;;19.20;63.40;;;;;;5090115;28;45292;-72
2022/10/15 08:17:15;;;;;;;0.40;0.40;;;19.30;63.80;;;;;;5089243;28;46380;-73
2022/10/15 08:19:42;;;;;;;0.55;0.45;;;19.30;64.00;;;;;;5088849;28;45265;-73
2022/10/15 08:22:11;;;;;;;1.33;0.60;;;19.30;64.20;;;;;;5089585;28;45370;-72
2022/10/15 08:24:38;;;;;;;0.93;0.60;;;19.40;64.20;;;;;;5090024;28;45190;-73
2022/10/15 08:27:05;;;;;;;1.25;0.75;;;19.40;64.50;;;;;;5089396;28;46712;-72
2022/10/15 08:29:32;;;;;;;0.40;0.40;;;19.40;64.50;;;;;;5089252;28;45349;-73
2022/10/15 08:31:59;;;;;;;0.82;0.47;;;19.40;64.90;;;;;;5089494;28;45249;-73
2022/10/15 08:34:26;;;;;;;0.50;0.30;;;19.40;64.80;;;;;;5089508;28;45184;-73
2022/10/15 08:36:53;;;;;;;0.40;0.40;;;19.40;65.10;;;;;;5088994;28;47310;-73
2022/10/15 08:39:21;;;;;;;0.65;0.52;;;19.40;64.90;;;;;;5089215;28;45252;-74
2022/10/15 08:41:49;;;;;;;0.50;0.50;;;19.40;65.20;;;;;;5089539;28;45277;-72
2022/10/15 08:44:21;;;;;;;0.40;0.40;;;19.40;65.10;;;;;;5089343;28;45538;-72
2022/10/15 08:46:50;;;;;;;0.40;0.40;;;19.40;65.00;;;;;;5089128;28;45393;-73
2022/10/15 08:49:23;;;;;;;1.63;0.50;;;19.40;65.10;;;;;;5088880;28;45177;-74
2022/10/15 08:51:53;;;;;;;0.43;0.40;;;19.50;65.20;;;;;;5089116;28;45305;-73
2022/10/15 08:54:21;;;;;;;0.40;0.25;;;19.50;65.10;;;;;;5089323;28;45596;-73
2022/10/15 08:56:50;;;;;;;1.35;0.40;;;19.50;65.10;;;;;;5088727;28;45281;-72
2022/10/15 08:59:21;;;;;;;0.50;0.50;;;19.50;65.20;;;;;;5089244;28;45212;-73
2022/10/15 09:01:50;;;;;;;0.38;0.38;;;19.50;65.00;;;;;;5088547;28;45310;-73
2022/10/15 09:04:22;;;;;;;0.55;0.35;;;19.50;65.20;;;;;;5089234;28;45581;-73
2022/10/15 09:06:48;;;;;;;0.75;0.57;;;19.50;65.20;;;;;;5089262;28;46445;-73
2022/10/15 09:09:18;;;;;;;0.88;0.47;;;19.50;65.20;;;;;;5087734;28;45416;-74
2022/10/15 09:11:52;;;;;;;0.65;0.55;;;19.50;65.10;;;;;;5088302;28;45296;-71
2022/10/15 09:14:19;;;;;;;1.45;0.60;;;19.50;65.10;;;;;;5088558;28;45308;-73
2022/10/15 09:16:48;;;;;;;1.15;0.50;;;19.50;64.90;;;;;;5083568;27;46641;-73
2022/10/15 09:19:16;;;;;;;0.40;0.40;;;19.50;64.70;;;;;;5088631;28;45325;-73
2022/10/15 09:21:43;;;;;;;0.77;0.77;;;19.50;65.00;;;;;;5088499;28;45295;-73
2022/10/15 09:24:13;;;;;;;0.40;0.40;;;19.60;64.80;;;;;;5088351;28;45252;-73
2022/10/15 09:26:50;;;;;;;2.03;0.50;;;19.60;64.60;;;;;;5088033;28;46442;-73
2022/10/15 09:29:21;;;;;;;6.00;0.85;;;19.60;65.10;;;;;;5088526;28;45261;-73
2022/10/15 09:31:49;;;;;;;4.47;0.57;;;19.60;64.90;;;;;;5089084;28;45293;-73
2022/10/15 09:34:19;;;;;;;6.45;0.90;;;19.60;65.00;;;;;;5088546;28;45334;-74
2022/10/15 09:36:48;;;;;;;0.90;0.70;;;19.60;65.00;;;;;;5075862;28;45538;-74
2022/10/15 09:39:30;;;;;;;1.88;0.50;;;19.70;65.10;;;;;;5068077;28;45423;-73
2022/10/15 09:42:03;;;;;;;1.80;0.77;;;19.70;64.80;;;;;;5065569;28;45395;-73
2022/10/15 09:44:36;;;;;;;0.98;0.73;;;19.70;65.10;;;;;;5068324;28;45241;-74
2022/10/15 09:47:10;;;;;;;1.55;0.65;;;19.70;65.00;;;;;;5069225;28;46633;-74
2022/10/15 09:49:37;;;;;;;3.58;1.13;;;19.70;65.20;;;;;;5087674;28;45303;-74
2022/10/15 09:52:07;;;;;;;5.68;0.93;;;19.70;65.30;;;;;;5084886;28;45249;-74
2022/10/15 09:54:37;;;;;;;1.42;0.90;;;19.70;65.50;;;;;;5088081;28;45609;-74
2022/10/15 09:57:08;;;;;;;1.20;0.82;;;19.70;65.10;;;;;;5087166;27;45367;-74
2022/10/15 09:59:35;;;;;;;1.00;0.50;;;19.70;65.30;;;;;;5088196;28;45432;-73
2022/10/15 10:02:03;;;;;;;1.10;0.70;;;19.70;65.10;;;;;;5088022;27;45231;-73
2022/10/15 10:04:30;;;;;;;0.80;0.68;;;19.70;65.10;;;;;;5085730;28;45237;-73
2022/10/15 10:06:58;;;;;;;1.95;0.70;;;19.70;65.30;;;;;;5087987;27;46389;-73
2022/10/15 10:09:25;;;;;;;1.25;0.60;;;19.70;65.60;;;;;;5088234;27;45321;-74
2022/10/15 10:11:54;;;;;;;1.13;0.80;;;19.70;65.40;;;;;;5088128;28;45376;-74
2022/10/15 10:14:26;;;;;;;1.20;0.60;;;19.70;65.50;;;;;;5086522;27;45372;-74
2022/10/15 10:17:14;;;;;;;0.50;0.50;;;19.70;65.60;;;;;;5086701;27;46669;-70
2022/10/15 10:19:41;;;;;;;1.35;0.50;;;19.70;65.60;;;;;;5087458;28;45251;-71
2022/10/15 10:22:14;;;;;;;2.03;0.98;;;19.70;65.40;;;;;;5087698;28;45334;-70
2022/10/15 10:24:40;;;;;;;2.40;0.80;;;19.70;65.60;;;;;;5087391;27;45449;-71
2022/10/15 10:27:20;;;;;;;0.60;0.60;;;19.70;66.30;;;;;;5086830;28;45498;-71
2022/10/15 10:29:54;;;;;;;0.70;0.55;;;19.70;65.50;;;;;;5066739;28;45237;-71
2022/10/15 10:32:22;;;;;;;1.73;0.60;;;19.70;65.70;;;;;;5082556;28;45419;-71
2022/10/15 10:34:49;;;;;;;1.15;0.70;;;19.70;65.60;;;;;;5087043;28;45215;-71
2022/10/15 10:37:16;;;;;;;0.90;0.60;;;19.70;65.60;;;;;;5086428;28;46602;-71
2022/10/15 10:39:44;;;;;;;0.95;0.68;;;19.70;65.60;;;;;;5086613;28;45202;-71
2022/10/15 10:42:28;;;;;;;0.50;0.45;;;19.70;65.60;;;;;;5087571;28;45241;-70
2022/10/15 10:44:56;;;;;;;1.33;0.63;;;19.70;65.50;;;;;;5087480;28;45284;-71
2022/10/15 10:47:23;;;;;;;0.70;0.70;;;19.70;65.50;;;;;;5085579;28;46381;-70
2022/10/15 10:49:51;;;;;;;0.55;0.55;;;19.70;65.50;;;;;;5086864;28;45237;-71
2022/10/15 10:52:22;;;;;;;0.63;0.60;;;19.70;65.50;;;;;;5087616;28;45306;-71
2022/10/15 10:54:53;;;;;;;0.73;0.60;;;19.80;66.20;;;;;;5087645;28;45415;-72
2022/10/15 10:57:22;;;;;;;2.25;0.63;;;19.80;65.60;;;;;;5087057;28;45298;-71
2022/10/15 10:59:50;;;;;;;0.70;0.70;;;19.80;66.10;;;;;;5086439;27;45335;-71
2022/10/15 11:02:19;;;;;;;0.82;0.60;;;19.80;65.40;;;;;;5085733;27;45805;-71
2022/10/15 11:04:45;;;;;;;0.65;0.52;;;19.70;65.20;;;;;;5087112;28;45463;-70
2022/10/15 11:07:16;;;;;;;0.93;0.60;;;19.80;65.70;;;;;;5086519;28;45309;-70
2022/10/15 11:09:47;;;;;;;0.63;0.50;;;19.80;65.10;;;;;;5084747;28;45404;-71
2022/10/15 11:12:28;;;;;;;0.40;0.40;;;19.80;65.00;;;;;;5087175;28;45200;-70
2022/10/15 11:14:57;;;;;;;0.55;0.50;;;19.80;64.80;;;;;;5066916;28;45371;-71
2022/10/15 11:17:28;;;;;;;0.70;0.70;;;19.80;64.80;;;;;;5069480;28;45507;-70
2022/10/15 11:19:57;;;;;;;2.33;1.02;;;19.80;64.90;;;;;;5086515;28;45258;-71
2022/10/15 11:22:39;;;;;;;1.48;0.60;;;19.90;64.70;;;;;;5086993;28;45216;-70
2022/10/15 11:25:08;;;;;;;2.38;0.68;;;19.90;65.70;;;;;;5086450;28;45308;-70
2022/10/15 11:27:43;;;;;;;1.98;0.57;;;19.90;64.80;;;;;;5086588;28;45199;-70
2022/10/15 11:30:16;;;;;;;0.68;0.60;;;19.90;64.70;;;;;;5086852;28;45199;-70
2022/10/15 11:32:47;;;;;;;0.55;0.55;;;20.00;64.80;;;;;;5087039;28;45205;-71
2022/10/15 11:35:24;;;;;;;1.25;0.50;;;20.00;64.80;;;;;;5087182;28;45316;-72
2022/10/15 11:37:54;;;;;;;0.90;0.52;;;20.00;64.50;;;;;;5066266;28;45477;-72
2022/10/15 11:40:24;;;;;;;1.95;0.68;;;20.10;64.20;;;;;;5085029;28;45257;-72
2022/10/15 11:42:55;;;;;;;1.77;0.60;;;20.20;64.10;;;;;;5086433;28;45534;-71
2022/10/15 11:45:41;;;;;;;1.42;0.57;;;20.30;63.90;;;;;;5086970;28;45380;-71
2022/10/15 11:48:13;;;;;;;0.88;0.50;;;20.30;64.10;;;;;;5086716;28;45650;-73
2022/10/15 11:50:41;;;;;;;2.50;0.77;;;20.20;64.30;;;;;;5086778;28;45235;-72
2022/10/15 11:53:21;;;;;;;1.08;0.55;;;20.30;64.60;;;;;;5087917;27;45212;-71
2022/10/15 11:55:50;;;;;;;1.15;0.60;;;20.20;64.90;;;;;;5066564;28;45200;-72
2022/10/15 11:58:20;;;;;;;1.02;0.50;;;20.20;65.00;;;;;;5083338;28;45374;-72
2022/10/15 12:00:50;;;;;;;0.70;0.70;;;20.30;65.00;;;;;;5086580;27;45352;-72
2022/10/15 12:03:19;;;;;;;2.35;0.60;;;20.20;65.00;;;;;;5085428;27;45223;-70
2022/10/15 12:05:48;;;;;;;0.70;0.60;;;20.20;65.00;;;;;;5078649;28;45288;-71
2022/10/15 12:08:15;;;;;;;1.38;0.60;;;20.30;65.40;;;;;;5085968;28;45283;-70
2022/10/15 12:10:57;;;;;;;0.88;0.65;;;20.30;66.50;;;;;;5086666;28;45343;-71
2022/10/15 12:13:27;;;;;;;3.15;0.60;;;20.30;65.80;;;;;;5086740;28;45216;-72
2022/10/15 12:15:59;;;;;;;1.17;0.60;;;20.30;65.40;;;;;;5086412;28;45475;-72
2022/10/15 12:18:30;;;;;;;1.00;0.70;;;20.30;65.80;;;;;;5085999;28;45523;-72
2022/10/15 12:20:57;;;;;;;2.65;0.90;;;20.30;66.00;;;;;;5086056;28;45427;-70
2022/10/15 12:23:25;;;;;;;0.65;0.60;;;20.30;66.20;;;;;;5086382;28;45178;-71
2022/10/15 12:25:52;;;;;;;3.40;0.60;;;20.30;65.50;;;;;;5076222;27;45438;-72
2022/10/15 12:28:21;;;;;;;1.63;0.57;;;20.30;65.40;;;;;;5065915;28;46641;-71
2022/10/15 12:30:58;;;;;;;1.45;0.65;;;20.30;65.20;;;;;;5083965;28;45334;-71
2022/10/15 12:33:31;;;;;;;1.40;0.60;;;20.30;65.40;;;;;;5086914;28;45340;-72
2022/10/15 12:35:59;;;;;;;0.70;0.70;;;20.40;65.80;;;;;;5081357;28;45160;-72
2022/10/15 12:38:28;;;;;;;0.60;0.60;;;20.30;65.40;;;;;;5068939;28;47722;-72
2022/10/15 12:41:02;;;;;;;1.35;0.55;;;20.30;65.40;;;;;;5079790;28;45406;-72
2022/10/15 12:43:29;;;;;;;1.90;0.90;;;20.30;65.40;;;;;;5093301;27;45320;-72
2022/10/15 12:45:57;;;;;;;0.70;0.70;;;20.30;65.30;;;;;;5090143;28;45414;-72
2022/10/15 12:48:35;;;;;;;4.45;0.68;;;20.40;65.60;;;;;;5089636;27;45334;-70
2022/10/15 12:51:41;;;;;;;1.42;0.60;;;20.40;65.60;;;;;;5089785;28;45290;-70
2022/10/15 12:54:34;;;;;;;2.75;0.80;;;20.40;65.50;;;;;;5089320;28;45325;-71
2022/10/15 12:57:03;;;;;;;4.03;0.80;;;20.40;65.50;;;;;;5069415;27;45182;-70